Lawrenceville, NY (12949)

10:52 PM EDT on September 21, 2014 (GMT -0400)
Deer river | Change Station
CLOSE
Current Station
Personal Weather Station
Location: Brasher Falls-Winthrop, NY
Elevation: 299 ft
Nearby Weather Stations

Elev 299 ft 44.82 °N, 74.69 °W | Updated 12 minutes ago

Rain
Rain
61.3 °F
Feels Like 61.3 °F
N
2.2
Wind Variable Wind from ESE

Today
High -- | Low -- °F
--% Chance of Precip.
Yesterday
High -- | Low -- °F
Precip. -- in
6:44 AM 6:58 PM
Waning Crescent, 4% visible
Pressure 29.56 in
Visibility 10.0 miles
Clouds Mostly Cloudy 900 ft
Mostly Cloudy 2200 ft
Dew Point 59 °F
Humidity 91%
Rainfall 0.01 in
Snow Depth Not available.
UV 0 out of 12
Pollen .40 out of 12
Air Quality Not available.
Flu Activity Not available.
SPECI KMSS 220209Z AUTO 28012KT 10SM BKN009 BKN022 14/13 A2956 RMK AO2 CIG 006V011 T01440133

More Conditions Fewer Conditions

Pressure 29.56 in
Visibility 10.0 miles
Clouds Mostly Cloudy 900 ft
Mostly Cloudy 2200 ft
Dew Point 59 °F
Humidity 91%
Rainfall 0.01 in
Snow Depth Not available.
UV 0 out of 12
Pollen .40 out of 12
Air Quality Not available.
Flu Activity Not available.
SPECI KMSS 220209Z AUTO 28012KT 10SM BKN009 BKN022 14/13 A2956 RMK AO2 CIG 006V011 T01440133

More Conditions Fewer Conditions

10-Day Weather Forecast

Almanac

Astronomy

Sep. 21, 2014 Rise Set
Actual Time 6:44 AM EDT 6:58 PM EDT
Civil Twilight 6:15 AM EDT 7:27 PM EDT
Nautical Twilight 5:40 AM EDT 8:01 PM EDT
Astronomical Twilight 5:05 AM EDT 8:36 PM EDT
Moon 4:10 AM EDT (9/21) 5:36 PM EDT (9/21)
Length of Visible Light 13h 11m
Length of Day
12h 13m
Tomorrow will be 3m 5s shorter.
Waning Crescent, 4% of the Moon is Illuminated
Today
Waning Crescent
Sep 24
New
Oct 1
First Quarter
Oct 8
Full
Oct 15
Last Quarter

Today's Extremes

State Highs State Lows

Community

WunderPhotos

Upload Photos

1,755,371 photos uploaded!

WunderBlogs® & News

Nearby

Air Quality

  Air Quality AQ Index Pollutant
Sunday Good
OZONE
Sunday Good
PM2.5
Monday Good
OZONE
Monday Good
PM2.5

Snow Depth

Station Depth Elevation
No new snow has been reported.

Earthquake Activity

City Distance Mag. Time & Date
No recent earthquake activity has been reported nearby.
Minimum magnitude displayed is 2.5.

Coastal Water Temperatures

Place Temperature
Ogdensburg, NY 64.9 °F
Alexandria Bay, NY 64.9 °F

Nearby Weather Stations